sensor_id;sensor_type;location;lat;lon;timestamp;P1;durP1;ratioP1;P2;durP2;ratioP2
74626;SDS011;63132;52.268;5.192;2023-03-01T00:02:03;50.07;;;25.67;;
74626;SDS011;63132;52.268;5.192;2023-03-01T00:04:29;54.67;;;27.05;;
74626;SDS011;63132;52.268;5.192;2023-03-01T00:06:55;56.53;;;28.13;;
74626;SDS011;63132;52.268;5.192;2023-03-01T00:09:20;51.60;;;26.05;;
74626;SDS011;63132;52.268;5.192;2023-03-01T00:11:46;50.47;;;26.60;;
74626;SDS011;63132;52.268;5.192;2023-03-01T00:14:11;55.70;;;26.90;;
74626;SDS011;63132;52.268;5.192;2023-03-01T00:16:38;49.22;;;25.67;;
74626;SDS011;63132;52.268;5.192;2023-03-01T00:19:06;52.70;;;26.83;;
74626;SDS011;63132;52.268;5.192;2023-03-01T00:21:34;53.38;;;26.40;;
74626;SDS011;63132;52.268;5.192;2023-03-01T00:24:00;46.53;;;24.60;;
74626;SDS011;63132;52.268;5.192;2023-03-01T00:28:52;50.50;;;25.45;;
74626;SDS011;63132;52.268;5.192;2023-03-01T00:31:19;57.10;;;27.05;;
74626;SDS011;63132;52.268;5.192;2023-03-01T00:33:47;49.30;;;24.63;;
74626;SDS011;63132;52.268;5.192;2023-03-01T00:36:13;51.80;;;27.15;;
74626;SDS011;63132;52.268;5.192;2023-03-01T00:38:41;54.97;;;27.52;;
74626;SDS011;63132;52.268;5.192;2023-03-01T00:41:13;56.35;;;26.23;;
74626;SDS011;63132;52.268;5.192;2023-03-01T00:43:40;53.30;;;26.27;;
74626;SDS011;63132;52.268;5.192;2023-03-01T00:46:06;56.50;;;28.98;;
74626;SDS011;63132;52.268;5.192;2023-03-01T00:48:34;55.90;;;27.10;;
74626;SDS011;63132;52.268;5.192;2023-03-01T00:51:04;54.35;;;27.02;;
74626;SDS011;63132;52.268;5.192;2023-03-01T00:53:56;53.88;;;27.25;;
74626;SDS011;63132;52.268;5.192;2023-03-01T00:56:23;60.40;;;30.10;;
74626;SDS011;63132;52.268;5.192;2023-03-01T00:58:49;62.63;;;28.90;;
74626;SDS011;63132;52.268;5.192;2023-03-01T01:01:16;61.00;;;29.30;;
74626;SDS011;63132;52.268;5.192;2023-03-01T01:03:56;58.85;;;28.88;;
74626;SDS011;63132;52.268;5.192;2023-03-01T01:06:25;54.90;;;28.05;;
74626;SDS011;63132;52.268;5.192;2023-03-01T01:08:57;56.45;;;29.52;;
74626;SDS011;63132;52.268;5.192;2023-03-01T01:11:26;54.90;;;28.27;;
74626;SDS011;63132;52.268;5.192;2023-03-01T01:13:53;60.53;;;30.05;;
74626;SDS011;63132;52.268;5.192;2023-03-01T01:16:20;55.00;;;28.13;;
74626;SDS011;63132;52.268;5.192;2023-03-01T01:18:46;61.42;;;30.20;;
74626;SDS011;63132;52.268;5.192;2023-03-01T01:21:13;62.47;;;29.83;;
74626;SDS011;63132;52.268;5.192;2023-03-01T01:23:40;63.22;;;30.50;;
74626;SDS011;63132;52.268;5.192;2023-03-01T01:26:09;67.68;;;29.05;;
74626;SDS011;63132;52.268;5.192;2023-03-01T01:28:36;61.35;;;29.15;;
74626;SDS011;63132;52.268;5.192;2023-03-01T01:31:02;59.20;;;29.27;;
74626;SDS011;63132;52.268;5.192;2023-03-01T01:33:27;64.45;;;30.30;;
74626;SDS011;63132;52.268;5.192;2023-03-01T01:35:53;59.13;;;29.37;;
74626;SDS011;63132;52.268;5.192;2023-03-01T01:38:19;63.58;;;29.95;;
74626;SDS011;63132;52.268;5.192;2023-03-01T01:40:47;59.33;;;29.40;;
74626;SDS011;63132;52.268;5.192;2023-03-01T01:43:19;59.38;;;29.13;;
74626;SDS011;63132;52.268;5.192;2023-03-01T01:46:06;62.35;;;29.77;;
74626;SDS011;63132;52.268;5.192;2023-03-01T01:48:41;65.95;;;31.00;;
74626;SDS011;63132;52.268;5.192;2023-03-01T01:51:13;61.08;;;29.50;;
74626;SDS011;63132;52.268;5.192;2023-03-01T01:53:43;57.58;;;29.25;;
74626;SDS011;63132;52.268;5.192;2023-03-01T01:56:12;63.60;;;28.55;;
74626;SDS011;63132;52.268;5.192;2023-03-01T01:58:39;61.78;;;27.98;;
74626;SDS011;63132;52.268;5.192;2023-03-01T02:01:07;55.22;;;28.10;;
74626;SDS011;63132;52.268;5.192;2023-03-01T02:03:33;58.50;;;29.52;;
74626;SDS011;63132;52.268;5.192;2023-03-01T02:06:19;59.05;;;27.35;;
74626;SDS011;63132;52.268;5.192;2023-03-01T02:08:53;63.25;;;28.92;;
74626;SDS011;63132;52.268;5.192;2023-03-01T02:11:22;61.28;;;29.08;;
74626;SDS011;63132;52.268;5.192;2023-03-01T02:13:48;57.92;;;28.75;;
74626;SDS011;63132;52.268;5.192;2023-03-01T02:16:15;61.72;;;30.60;;
74626;SDS011;63132;52.268;5.192;2023-03-01T02:23:51;55.33;;;27.08;;
74626;SDS011;63132;52.268;5.192;2023-03-01T02:29:02;60.33;;;28.85;;
74626;SDS011;63132;52.268;5.192;2023-03-01T02:31:28;58.58;;;28.27;;
74626;SDS011;63132;52.268;5.192;2023-03-01T02:34:12;58.25;;;27.83;;
74626;SDS011;63132;52.268;5.192;2023-03-01T02:36:41;61.13;;;29.27;;
74626;SDS011;63132;52.268;5.192;2023-03-01T02:39:11;56.33;;;28.10;;
74626;SDS011;63132;52.268;5.192;2023-03-01T02:41:42;60.95;;;29.30;;
74626;SDS011;63132;52.268;5.192;2023-03-01T02:44:11;64.38;;;30.27;;
74626;SDS011;63132;52.268;5.192;2023-03-01T02:46:41;62.78;;;29.88;;
74626;SDS011;63132;52.268;5.192;2023-03-01T02:49:17;65.03;;;29.30;;
74626;SDS011;63132;52.268;5.192;2023-03-01T02:52:08;62.55;;;29.73;;
74626;SDS011;63132;52.268;5.192;2023-03-01T02:54:33;62.47;;;30.30;;
74626;SDS011;63132;52.268;5.192;2023-03-01T02:57:03;65.20;;;30.73;;
74626;SDS011;63132;52.268;5.192;2023-03-01T02:59:30;60.90;;;30.13;;
74626;SDS011;63132;52.268;5.192;2023-03-01T03:02:04;55.55;;;28.33;;
74626;SDS011;63132;52.268;5.192;2023-03-01T03:04:33;58.28;;;28.90;;
74626;SDS011;63132;52.268;5.192;2023-03-01T03:06:59;62.90;;;30.33;;
74626;SDS011;63132;52.268;5.192;2023-03-01T03:09:24;59.27;;;27.87;;
74626;SDS011;63132;52.268;5.192;2023-03-01T03:11:50;59.67;;;30.47;;
74626;SDS011;63132;52.268;5.192;2023-03-01T03:14:16;57.35;;;29.13;;
74626;SDS011;63132;52.268;5.192;2023-03-01T03:16:42;57.45;;;28.67;;
74626;SDS011;63132;52.268;5.192;2023-03-01T03:19:10;55.58;;;27.00;;
74626;SDS011;63132;52.268;5.192;2023-03-01T03:21:35;61.25;;;28.77;;
74626;SDS011;63132;52.268;5.192;2023-03-01T03:24:01;59.65;;;29.13;;
74626;SDS011;63132;52.268;5.192;2023-03-01T03:26:27;66.53;;;29.48;;
74626;SDS011;63132;52.268;5.192;2023-03-01T03:28:52;62.40;;;29.67;;
74626;SDS011;63132;52.268;5.192;2023-03-01T03:31:18;58.28;;;30.23;;
74626;SDS011;63132;52.268;5.192;2023-03-01T03:33:43;63.45;;;30.02;;
74626;SDS011;63132;52.268;5.192;2023-03-01T03:36:08;63.30;;;28.03;;
74626;SDS011;63132;52.268;5.192;2023-03-01T03:38:38;59.35;;;26.60;;
74626;SDS011;63132;52.268;5.192;2023-03-01T03:41:05;53.40;;;27.50;;
74626;SDS011;63132;52.268;5.192;2023-03-01T03:43:33;55.42;;;26.92;;
74626;SDS011;63132;52.268;5.192;2023-03-01T03:46:02;56.10;;;28.13;;
74626;SDS011;63132;52.268;5.192;2023-03-01T03:48:34;61.40;;;28.95;;
74626;SDS011;63132;52.268;5.192;2023-03-01T03:51:02;62.35;;;27.98;;
74626;SDS011;63132;52.268;5.192;2023-03-01T03:53:30;53.92;;;25.83;;
74626;SDS011;63132;52.268;5.192;2023-03-01T03:55:55;56.08;;;27.05;;
74626;SDS011;63132;52.268;5.192;2023-03-01T03:58:21;54.53;;;26.37;;
74626;SDS011;63132;52.268;5.192;2023-03-01T04:00:49;52.80;;;25.65;;
74626;SDS011;63132;52.268;5.192;2023-03-01T04:03:17;52.45;;;26.05;;
74626;SDS011;63132;52.268;5.192;2023-03-01T04:05:44;47.88;;;24.50;;
74626;SDS011;63132;52.268;5.192;2023-03-01T04:08:09;55.42;;;26.00;;
74626;SDS011;63132;52.268;5.192;2023-03-01T04:10:37;55.33;;;26.45;;
74626;SDS011;63132;52.268;5.192;2023-03-01T04:13:05;52.28;;;24.13;;
74626;SDS011;63132;52.268;5.192;2023-03-01T04:15:32;50.33;;;26.27;;
74626;SDS011;63132;52.268;5.192;2023-03-01T04:17:58;56.38;;;25.65;;
74626;SDS011;63132;52.268;5.192;2023-03-01T04:20:27;54.85;;;26.08;;
74626;SDS011;63132;52.268;5.192;2023-03-01T04:23:01;54.47;;;26.45;;
74626;SDS011;63132;52.268;5.192;2023-03-01T04:25:52;51.38;;;24.90;;
74626;SDS011;63132;52.268;5.192;2023-03-01T04:28:53;55.95;;;24.77;;
74626;SDS011;63132;52.268;5.192;2023-03-01T04:31:14;48.33;;;24.27;;
74626;SDS011;63132;52.268;5.192;2023-03-01T04:33:46;48.15;;;24.77;;
74626;SDS011;63132;52.268;5.192;2023-03-01T04:36:14;44.47;;;23.25;;
74626;SDS011;63132;52.268;5.192;2023-03-01T04:38:41;48.85;;;24.70;;
74626;SDS011;63132;52.268;5.192;2023-03-01T04:41:07;45.47;;;23.85;;
74626;SDS011;63132;52.268;5.192;2023-03-01T04:43:35;49.60;;;24.42;;
74626;SDS011;63132;52.268;5.192;2023-03-01T04:48:32;44.90;;;22.17;;
74626;SDS011;63132;52.268;5.192;2023-03-01T04:50:58;46.58;;;23.85;;
74626;SDS011;63132;52.268;5.192;2023-03-01T04:53:24;56.10;;;25.85;;
74626;SDS011;63132;52.268;5.192;2023-03-01T04:55:50;48.15;;;23.08;;
74626;SDS011;63132;52.268;5.192;2023-03-01T04:58:16;46.35;;;23.20;;
74626;SDS011;63132;52.268;5.192;2023-03-01T05:00:41;46.43;;;23.17;;
74626;SDS011;63132;52.268;5.192;2023-03-01T05:03:07;46.97;;;23.25;;
74626;SDS011;63132;52.268;5.192;2023-03-01T05:08:01;47.42;;;22.67;;
74626;SDS011;63132;52.268;5.192;2023-03-01T05:10:30;40.35;;;20.25;;
74626;SDS011;63132;52.268;5.192;2023-03-01T05:12:57;40.20;;;20.73;;
74626;SDS011;63132;52.268;5.192;2023-03-01T05:15:23;42.47;;;21.60;;
74626;SDS011;63132;52.268;5.192;2023-03-01T05:17:51;41.88;;;20.45;;
74626;SDS011;63132;52.268;5.192;2023-03-01T05:20:17;38.85;;;19.85;;
74626;SDS011;63132;52.268;5.192;2023-03-01T05:25:08;37.40;;;19.08;;
74626;SDS011;63132;52.268;5.192;2023-03-01T05:27:34;41.95;;;19.60;;
74626;SDS011;63132;52.268;5.192;2023-03-01T05:32:38;36.95;;;17.80;;
74626;SDS011;63132;52.268;5.192;2023-03-01T05:35:08;34.75;;;17.02;;
74626;SDS011;63132;52.268;5.192;2023-03-01T05:37:34;37.55;;;17.60;;
74626;SDS011;63132;52.268;5.192;2023-03-01T05:40:00;34.17;;;16.80;;
74626;SDS011;63132;52.268;5.192;2023-03-01T05:42:26;33.75;;;16.98;;
74626;SDS011;63132;52.268;5.192;2023-03-01T05:44:51;34.60;;;17.80;;
74626;SDS011;63132;52.268;5.192;2023-03-01T05:47:17;33.13;;;17.00;;
74626;SDS011;63132;52.268;5.192;2023-03-01T05:49:42;33.17;;;17.20;;
74626;SDS011;63132;52.268;5.192;2023-03-01T05:52:07;37.03;;;16.53;;
74626;SDS011;63132;52.268;5.192;2023-03-01T05:54:33;32.30;;;17.27;;
74626;SDS011;63132;52.268;5.192;2023-03-01T05:56:58;32.93;;;16.20;;
74626;SDS011;63132;52.268;5.192;2023-03-01T05:59:23;34.53;;;17.80;;
74626;SDS011;63132;52.268;5.192;2023-03-01T06:01:49;32.90;;;17.60;;
74626;SDS011;63132;52.268;5.192;2023-03-01T06:04:15;32.05;;;17.15;;
74626;SDS011;63132;52.268;5.192;2023-03-01T06:06:40;33.57;;;18.23;;
74626;SDS011;63132;52.268;5.192;2023-03-01T06:09:06;36.83;;;17.63;;
74626;SDS011;63132;52.268;5.192;2023-03-01T06:11:34;37.13;;;18.90;;
74626;SDS011;63132;52.268;5.192;2023-03-01T06:16:25;39.28;;;19.10;;
74626;SDS011;63132;52.268;5.192;2023-03-01T06:18:51;37.00;;;19.40;;
74626;SDS011;63132;52.268;5.192;2023-03-01T06:21:16;44.83;;;19.60;;
74626;SDS011;63132;52.268;5.192;2023-03-01T06:23:41;35.50;;;18.23;;
74626;SDS011;63132;52.268;5.192;2023-03-01T06:26:07;48.50;;;21.17;;
74626;SDS011;63132;52.268;5.192;2023-03-01T06:28:34;38.90;;;20.95;;
74626;SDS011;63132;52.268;5.192;2023-03-01T06:31:00;38.38;;;20.23;;
74626;SDS011;63132;52.268;5.192;2023-03-01T06:33:25;44.90;;;19.85;;
74626;SDS011;63132;52.268;5.192;2023-03-01T06:35:51;39.50;;;19.10;;
74626;SDS011;63132;52.268;5.192;2023-03-01T06:38:19;40.13;;;20.73;;
74626;SDS011;63132;52.268;5.192;2023-03-01T06:40:44;40.17;;;19.63;;
74626;SDS011;63132;52.268;5.192;2023-03-01T06:43:16;40.60;;;21.00;;
74626;SDS011;63132;52.268;5.192;2023-03-01T06:45:41;42.30;;;21.50;;
74626;SDS011;63132;52.268;5.192;2023-03-01T06:48:07;46.85;;;22.25;;
74626;SDS011;63132;52.268;5.192;2023-03-01T06:50:33;45.97;;;22.60;;
74626;SDS011;63132;52.268;5.192;2023-03-01T06:52:59;50.08;;;23.25;;
74626;SDS011;63132;52.268;5.192;2023-03-01T06:55:25;45.55;;;22.33;;
74626;SDS011;63132;52.268;5.192;2023-03-01T06:57:54;46.83;;;22.42;;
74626;SDS011;63132;52.268;5.192;2023-03-01T07:00:21;47.45;;;23.42;;
74626;SDS011;63132;52.268;5.192;2023-03-01T07:02:47;44.53;;;22.92;;
74626;SDS011;63132;52.268;5.192;2023-03-01T07:05:12;46.43;;;22.97;;
74626;SDS011;63132;52.268;5.192;2023-03-01T07:07:38;42.75;;;21.42;;
74626;SDS011;63132;52.268;5.192;2023-03-01T07:10:03;40.80;;;22.17;;
74626;SDS011;63132;52.268;5.192;2023-03-01T07:12:29;47.90;;;24.23;;
74626;SDS011;63132;52.268;5.192;2023-03-01T07:14:54;42.10;;;22.50;;
74626;SDS011;63132;52.268;5.192;2023-03-01T07:17:20;46.63;;;23.43;;
74626;SDS011;63132;52.268;5.192;2023-03-01T07:19:45;48.97;;;22.73;;
74626;SDS011;63132;52.268;5.192;2023-03-01T07:22:11;46.93;;;23.50;;
74626;SDS011;63132;52.268;5.192;2023-03-01T07:24:36;51.47;;;22.87;;
74626;SDS011;63132;52.268;5.192;2023-03-01T07:27:01;49.20;;;24.50;;
74626;SDS011;63132;52.268;5.192;2023-03-01T07:29:27;51.67;;;25.40;;
74626;SDS011;63132;52.268;5.192;2023-03-01T07:31:54;52.40;;;25.55;;
74626;SDS011;63132;52.268;5.192;2023-03-01T07:34:19;50.03;;;26.38;;
74626;SDS011;63132;52.268;5.192;2023-03-01T07:36:45;46.30;;;23.90;;
74626;SDS011;63132;52.268;5.192;2023-03-01T07:39:10;51.47;;;25.88;;
74626;SDS011;63132;52.268;5.192;2023-03-01T07:44:02;51.10;;;24.85;;
74626;SDS011;63132;52.268;5.192;2023-03-01T07:46:27;48.97;;;25.38;;
74626;SDS011;63132;52.268;5.192;2023-03-01T07:48:53;55.83;;;25.87;;
74626;SDS011;63132;52.268;5.192;2023-03-01T07:51:18;49.92;;;25.92;;
74626;SDS011;63132;52.268;5.192;2023-03-01T07:53:45;58.50;;;27.93;;
74626;SDS011;63132;52.268;5.192;2023-03-01T07:56:13;68.55;;;32.70;;
74626;SDS011;63132;52.268;5.192;2023-03-01T07:58:41;66.18;;;31.48;;
74626;SDS011;63132;52.268;5.192;2023-03-01T08:01:09;72.25;;;33.47;;
74626;SDS011;63132;52.268;5.192;2023-03-01T08:03:36;67.00;;;31.83;;
74626;SDS011;63132;52.268;5.192;2023-03-01T08:08:28;59.50;;;28.45;;
74626;SDS011;63132;52.268;5.192;2023-03-01T08:10:57;54.25;;;26.25;;
74626;SDS011;63132;52.268;5.192;2023-03-01T08:13:26;54.35;;;26.60;;
74626;SDS011;63132;52.268;5.192;2023-03-01T08:15:52;57.70;;;27.60;;
74626;SDS011;63132;52.268;5.192;2023-03-01T08:18:18;52.33;;;24.92;;
74626;SDS011;63132;52.268;5.192;2023-03-01T08:20:44;41.03;;;22.20;;
74626;SDS011;63132;52.268;5.192;2023-03-01T08:23:10;44.85;;;22.27;;
74626;SDS011;63132;52.268;5.192;2023-03-01T08:25:35;45.40;;;23.27;;
74626;SDS011;63132;52.268;5.192;2023-03-01T08:28:01;41.92;;;19.73;;
74626;SDS011;63132;52.268;5.192;2023-03-01T08:30:26;40.63;;;20.33;;
74626;SDS011;63132;52.268;5.192;2023-03-01T08:32:51;38.53;;;19.43;;
74626;SDS011;63132;52.268;5.192;2023-03-01T08:35:17;35.23;;;18.37;;
74626;SDS011;63132;52.268;5.192;2023-03-01T08:37:44;32.35;;;18.05;;
74626;SDS011;63132;52.268;5.192;2023-03-01T08:40:09;34.47;;;15.85;;
74626;SDS011;63132;52.268;5.192;2023-03-01T08:42:36;25.27;;;14.27;;
74626;SDS011;63132;52.268;5.192;2023-03-01T08:45:02;25.10;;;13.40;;
74626;SDS011;63132;52.268;5.192;2023-03-01T08:47:28;25.65;;;12.73;;
74626;SDS011;63132;52.268;5.192;2023-03-01T08:49:54;24.57;;;13.20;;
74626;SDS011;63132;52.268;5.192;2023-03-01T08:52:19;25.33;;;14.60;;
74626;SDS011;63132;52.268;5.192;2023-03-01T08:54:47;24.25;;;14.80;;
74626;SDS011;63132;52.268;5.192;2023-03-01T08:57:12;28.30;;;15.27;;
74626;SDS011;63132;52.268;5.192;2023-03-01T08:59:38;20.87;;;13.33;;
74626;SDS011;63132;52.268;5.192;2023-03-01T09:02:04;22.15;;;12.68;;
74626;SDS011;63132;52.268;5.192;2023-03-01T09:06:55;20.88;;;12.13;;
74626;SDS011;63132;52.268;5.192;2023-03-01T09:09:20;17.48;;;11.45;;
74626;SDS011;63132;52.268;5.192;2023-03-01T09:11:46;28.13;;;14.40;;
74626;SDS011;63132;52.268;5.192;2023-03-01T09:14:12;23.10;;;12.15;;
74626;SDS011;63132;52.268;5.192;2023-03-01T09:16:38;18.63;;;10.98;;
74626;SDS011;63132;52.268;5.192;2023-03-01T09:19:04;19.98;;;11.50;;
74626;SDS011;63132;52.268;5.192;2023-03-01T09:21:30;20.00;;;11.82;;
74626;SDS011;63132;52.268;5.192;2023-03-01T09:23:56;18.92;;;11.02;;
74626;SDS011;63132;52.268;5.192;2023-03-01T09:26:23;19.92;;;12.10;;
74626;SDS011;63132;52.268;5.192;2023-03-01T09:31:20;21.38;;;12.60;;
74626;SDS011;63132;52.268;5.192;2023-03-01T09:33:47;25.75;;;13.82;;
74626;SDS011;63132;52.268;5.192;2023-03-01T09:36:14;22.60;;;12.77;;
74626;SDS011;63132;52.268;5.192;2023-03-01T09:38:42;24.55;;;12.90;;
74626;SDS011;63132;52.268;5.192;2023-03-01T09:41:17;26.85;;;13.55;;
74626;SDS011;63132;52.268;5.192;2023-03-01T09:43:47;24.40;;;13.07;;
74626;SDS011;63132;52.268;5.192;2023-03-01T09:46:23;21.40;;;12.65;;
74626;SDS011;63132;52.268;5.192;2023-03-01T09:48:51;24.83;;;14.20;;
74626;SDS011;63132;52.268;5.192;2023-03-01T09:51:32;29.00;;;13.88;;
74626;SDS011;63132;52.268;5.192;2023-03-01T09:54:03;26.85;;;14.23;;
74626;SDS011;63132;52.268;5.192;2023-03-01T09:59:13;26.80;;;13.02;;
74626;SDS011;63132;52.268;5.192;2023-03-01T10:01:59;26.83;;;12.93;;
74626;SDS011;63132;52.268;5.192;2023-03-01T10:07:48;18.90;;;11.02;;
74626;SDS011;63132;52.268;5.192;2023-03-01T10:10:37;15.68;;;9.30;;
74626;SDS011;63132;52.268;5.192;2023-03-01T10:15:56;17.05;;;9.27;;
74626;SDS011;63132;52.268;5.192;2023-03-01T10:18:27;16.52;;;8.98;;
74626;SDS011;63132;52.268;5.192;2023-03-01T10:23:44;15.65;;;8.45;;
74626;SDS011;63132;52.268;5.192;2023-03-01T10:29:17;16.13;;;7.80;;
74626;SDS011;63132;52.268;5.192;2023-03-01T10:31:51;13.35;;;6.82;;
74626;SDS011;63132;52.268;5.192;2023-03-01T10:34:36;11.82;;;6.22;;
74626;SDS011;63132;52.268;5.192;2023-03-01T10:37:12;14.88;;;6.72;;
74626;SDS011;63132;52.268;5.192;2023-03-01T10:39:56;12.57;;;6.90;;
74626;SDS011;63132;52.268;5.192;2023-03-01T10:42:39;15.38;;;7.53;;
74626;SDS011;63132;52.268;5.192;2023-03-01T10:45:33;12.75;;;6.00;;
74626;SDS011;63132;52.268;5.192;2023-03-01T10:48:21;11.70;;;6.28;;
74626;SDS011;63132;52.268;5.192;2023-03-01T10:51:03;10.15;;;5.75;;
74626;SDS011;63132;52.268;5.192;2023-03-01T10:53:41;12.68;;;6.30;;
74626;SDS011;63132;52.268;5.192;2023-03-01T11:01:03;11.40;;;6.53;;
74626;SDS011;63132;52.268;5.192;2023-03-01T11:05:58;9.17;;;5.57;;
74626;SDS011;63132;52.268;5.192;2023-03-01T11:08:33;10.40;;;5.20;;
74626;SDS011;63132;52.268;5.192;2023-03-01T11:13:34;9.63;;;6.10;;
74626;SDS011;63132;52.268;5.192;2023-03-01T11:18:27;11.35;;;5.97;;
74626;SDS011;63132;52.268;5.192;2023-03-01T11:20:54;11.98;;;5.78;;
74626;SDS011;63132;52.268;5.192;2023-03-01T11:23:21;9.73;;;5.38;;
74626;SDS011;63132;52.268;5.192;2023-03-01T11:25:55;9.65;;;5.63;;
74626;SDS011;63132;52.268;5.192;2023-03-01T11:28:23;11.18;;;6.00;;
74626;SDS011;63132;52.268;5.192;2023-03-01T11:38:56;10.70;;;5.15;;
74626;SDS011;63132;52.268;5.192;2023-03-01T11:41:28;12.27;;;7.28;;
74626;SDS011;63132;52.268;5.192;2023-03-01T11:44:30;10.48;;;5.95;;
74626;SDS011;63132;52.268;5.192;2023-03-01T11:55:36;14.23;;;6.72;;
74626;SDS011;63132;52.268;5.192;2023-03-01T12:03:42;9.90;;;5.97;;
74626;SDS011;63132;52.268;5.192;2023-03-01T12:14:21;9.30;;;5.20;;
74626;SDS011;63132;52.268;5.192;2023-03-01T12:25:03;9.48;;;5.55;;
74626;SDS011;63132;52.268;5.192;2023-03-01T12:30:06;11.23;;;6.30;;
74626;SDS011;63132;52.268;5.192;2023-03-01T12:42:57;11.65;;;5.65;;
74626;SDS011;63132;52.268;5.192;2023-03-01T12:48:17;8.82;;;5.18;;
74626;SDS011;63132;52.268;5.192;2023-03-01T12:50:47;10.95;;;5.63;;
74626;SDS011;63132;52.268;5.192;2023-03-01T12:55:49;10.10;;;5.18;;
74626;SDS011;63132;52.268;5.192;2023-03-01T13:06:12;10.45;;;5.57;;
74626;SDS011;63132;52.268;5.192;2023-03-01T13:11:25;9.85;;;4.97;;
74626;SDS011;63132;52.268;5.192;2023-03-01T13:13:51;9.65;;;5.25;;
74626;SDS011;63132;52.268;5.192;2023-03-01T13:16:20;10.43;;;5.03;;
74626;SDS011;63132;52.268;5.192;2023-03-01T13:19:22;11.40;;;5.32;;
74626;SDS011;63132;52.268;5.192;2023-03-01T13:21:54;10.50;;;4.97;;
74626;SDS011;63132;52.268;5.192;2023-03-01T13:25:02;10.82;;;5.32;;
74626;SDS011;63132;52.268;5.192;2023-03-01T13:29:51;8.20;;;4.65;;
74626;SDS011;63132;52.268;5.192;2023-03-01T13:32:31;8.38;;;4.65;;
74626;SDS011;63132;52.268;5.192;2023-03-01T13:37:28;12.37;;;4.87;;
74626;SDS011;63132;52.268;5.192;2023-03-01T13:39:58;8.20;;;4.75;;
74626;SDS011;63132;52.268;5.192;2023-03-01T13:42:31;11.02;;;5.13;;
74626;SDS011;63132;52.268;5.192;2023-03-01T13:45:05;12.38;;;5.43;;
74626;SDS011;63132;52.268;5.192;2023-03-01T13:47:56;12.00;;;4.90;;
74626;SDS011;63132;52.268;5.192;2023-03-01T13:50:24;13.32;;;5.45;;
74626;SDS011;63132;52.268;5.192;2023-03-01T13:52:54;12.23;;;6.35;;
74626;SDS011;63132;52.268;5.192;2023-03-01T13:55:27;9.07;;;4.90;;
74626;SDS011;63132;52.268;5.192;2023-03-01T13:58:01;7.88;;;4.47;;
74626;SDS011;63132;52.268;5.192;2023-03-01T14:00:37;8.82;;;4.60;;
74626;SDS011;63132;52.268;5.192;2023-03-01T14:03:04;8.43;;;4.75;;
74626;SDS011;63132;52.268;5.192;2023-03-01T14:05:31;8.13;;;4.45;;
74626;SDS011;63132;52.268;5.192;2023-03-01T14:07:57;10.23;;;5.00;;
74626;SDS011;63132;52.268;5.192;2023-03-01T14:10:22;10.63;;;4.53;;
74626;SDS011;63132;52.268;5.192;2023-03-01T14:13:01;8.43;;;4.93;;
74626;SDS011;63132;52.268;5.192;2023-03-01T14:15:59;10.27;;;4.70;;
74626;SDS011;63132;52.268;5.192;2023-03-01T14:21:17;10.30;;;4.90;;
74626;SDS011;63132;52.268;5.192;2023-03-01T14:23:42;9.75;;;4.55;;
74626;SDS011;63132;52.268;5.192;2023-03-01T14:26:08;9.13;;;4.00;;
74626;SDS011;63132;52.268;5.192;2023-03-01T14:28:36;8.30;;;4.55;;
74626;SDS011;63132;52.268;5.192;2023-03-01T14:31:35;9.77;;;4.70;;
74626;SDS011;63132;52.268;5.192;2023-03-01T14:33:55;8.27;;;5.05;;
74626;SDS011;63132;52.268;5.192;2023-03-01T14:36:26;8.73;;;5.10;;
74626;SDS011;63132;52.268;5.192;2023-03-01T14:38:52;7.97;;;4.60;;
74626;SDS011;63132;52.268;5.192;2023-03-01T14:41:20;9.00;;;4.45;;
74626;SDS011;63132;52.268;5.192;2023-03-01T14:43:55;7.95;;;4.47;;
74626;SDS011;63132;52.268;5.192;2023-03-01T14:51:50;8.73;;;5.07;;
74626;SDS011;63132;52.268;5.192;2023-03-01T14:56:52;12.15;;;5.38;;
74626;SDS011;63132;52.268;5.192;2023-03-01T14:59:22;8.98;;;5.05;;
74626;SDS011;63132;52.268;5.192;2023-03-01T15:01:49;10.90;;;5.28;;
74626;SDS011;63132;52.268;5.192;2023-03-01T15:04:17;9.00;;;4.90;;
74626;SDS011;63132;52.268;5.192;2023-03-01T15:06:44;9.73;;;5.47;;
74626;SDS011;63132;52.268;5.192;2023-03-01T15:09:14;11.43;;;5.70;;
74626;SDS011;63132;52.268;5.192;2023-03-01T15:11:41;10.98;;;5.75;;
74626;SDS011;63132;52.268;5.192;2023-03-01T15:19:51;9.73;;;4.78;;
74626;SDS011;63132;52.268;5.192;2023-03-01T15:22:17;10.13;;;5.57;;
74626;SDS011;63132;52.268;5.192;2023-03-01T15:24:46;8.90;;;5.47;;
74626;SDS011;63132;52.268;5.192;2023-03-01T15:27:19;8.93;;;4.68;;
74626;SDS011;63132;52.268;5.192;2023-03-01T15:29:52;9.48;;;5.13;;
74626;SDS011;63132;52.268;5.192;2023-03-01T15:32:28;10.40;;;5.57;;
74626;SDS011;63132;52.268;5.192;2023-03-01T15:38:04;16.67;;;5.77;;
74626;SDS011;63132;52.268;5.192;2023-03-01T15:40:51;12.65;;;5.63;;
74626;SDS011;63132;52.268;5.192;2023-03-01T15:43:40;11.38;;;5.32;;
74626;SDS011;63132;52.268;5.192;2023-03-01T15:46:23;10.32;;;5.53;;
74626;SDS011;63132;52.268;5.192;2023-03-01T15:48:53;9.63;;;5.45;;
74626;SDS011;63132;52.268;5.192;2023-03-01T15:51:54;10.00;;;5.50;;
74626;SDS011;63132;52.268;5.192;2023-03-01T15:54:17;12.30;;;5.50;;
74626;SDS011;63132;52.268;5.192;2023-03-01T15:56:45;8.85;;;5.38;;
74626;SDS011;63132;52.268;5.192;2023-03-01T15:59:11;8.95;;;5.57;;
74626;SDS011;63132;52.268;5.192;2023-03-01T16:01:39;10.73;;;5.28;;
74626;SDS011;63132;52.268;5.192;2023-03-01T16:04:05;11.82;;;5.88;;
74626;SDS011;63132;52.268;5.192;2023-03-01T16:06:30;10.95;;;5.65;;
74626;SDS011;63132;52.268;5.192;2023-03-01T16:08:56;8.70;;;5.60;;
74626;SDS011;63132;52.268;5.192;2023-03-01T16:11:21;10.93;;;5.50;;
74626;SDS011;63132;52.268;5.192;2023-03-01T16:13:47;13.02;;;5.35;;
74626;SDS011;63132;52.268;5.192;2023-03-01T16:16:13;10.35;;;5.68;;
74626;SDS011;63132;52.268;5.192;2023-03-01T16:18:47;14.52;;;5.35;;
74626;SDS011;63132;52.268;5.192;2023-03-01T16:21:20;10.90;;;5.93;;
74626;SDS011;63132;52.268;5.192;2023-03-01T16:23:49;10.32;;;5.78;;
74626;SDS011;63132;52.268;5.192;2023-03-01T16:26:16;14.45;;;5.47;;
74626;SDS011;63132;52.268;5.192;2023-03-01T16:28:42;10.13;;;6.55;;
74626;SDS011;63132;52.268;5.192;2023-03-01T16:31:08;10.00;;;5.45;;
74626;SDS011;63132;52.268;5.192;2023-03-01T16:33:33;10.85;;;5.68;;
74626;SDS011;63132;52.268;5.192;2023-03-01T16:36:00;12.50;;;5.85;;
74626;SDS011;63132;52.268;5.192;2023-03-01T16:38:27;10.52;;;5.35;;
74626;SDS011;63132;52.268;5.192;2023-03-01T16:40:53;9.02;;;5.53;;
74626;SDS011;63132;52.268;5.192;2023-03-01T16:43:19;10.13;;;5.78;;
74626;SDS011;63132;52.268;5.192;2023-03-01T16:45:45;13.18;;;6.68;;
74626;SDS011;63132;52.268;5.192;2023-03-01T16:48:11;9.43;;;5.35;;
74626;SDS011;63132;52.268;5.192;2023-03-01T16:50:37;12.82;;;6.32;;
74626;SDS011;63132;52.268;5.192;2023-03-01T16:53:02;10.10;;;5.97;;
74626;SDS011;63132;52.268;5.192;2023-03-01T16:55:28;9.80;;;6.00;;
74626;SDS011;63132;52.268;5.192;2023-03-01T16:57:53;12.48;;;6.30;;
74626;SDS011;63132;52.268;5.192;2023-03-01T17:00:19;17.63;;;7.97;;
74626;SDS011;63132;52.268;5.192;2023-03-01T17:05:11;10.13;;;5.68;;
74626;SDS011;63132;52.268;5.192;2023-03-01T17:07:37;10.00;;;5.68;;
74626;SDS011;63132;52.268;5.192;2023-03-01T17:10:07;12.73;;;6.40;;
74626;SDS011;63132;52.268;5.192;2023-03-01T17:12:34;12.93;;;6.20;;
74626;SDS011;63132;52.268;5.192;2023-03-01T17:15:00;9.20;;;5.95;;